Time;durP1;ratioP1;P1;durP2;ratioP2;P2;SDS_P1;SDS_P2;PMS_P1;PMS_P2;Temp;Humidity;BMP_temperature;BMP_pressure;BME280_temperature;BME280_humidity;BME280_pressure;Samples;Min_cycle;Max_cycle;Signal;HPM_P1;HPM_P2
2021/11/18 00:01:00;;;;;;;297.65;124.82;;;;;;;-0.59;76.70;95006.45;1673496;84;21726;-61
2021/11/18 00:03:27;;;;;;;298.23;128.60;;;;;;;-0.63;76.40;94997.53;1672089;84;20968;-62
2021/11/18 00:05:53;;;;;;;316.57;134.52;;;;;;;-0.64;76.77;95014.09;1676283;84;21559;-60
2021/11/18 00:08:20;;;;;;;314.10;137.37;;;;;;;-0.72;76.51;95015.97;1666891;84;21601;-61
2021/11/18 00:10:52;;;;;;;284.45;121.60;;;;;;;-0.83;76.68;95015.06;1675869;84;21106;-60
2021/11/18 00:13:21;;;;;;;305.70;138.65;;;;;;;-0.90;76.91;95012.84;1677107;84;21070;-60
2021/11/18 00:15:49;;;;;;;278.73;125.02;;;;;;;-1.01;76.89;95015.98;1671960;84;21074;-63
2021/11/18 00:18:20;;;;;;;283.10;118.55;;;;;;;-1.18;76.81;95015.21;1680536;84;21034;-61
2021/11/18 00:20:57;;;;;;;303.15;133.37;;;;;;;-1.29;77.23;95016.98;1665391;84;21015;-61
2021/11/18 00:23:26;;;;;;;287.12;124.75;;;;;;;-1.35;77.88;95017.86;1661283;84;21166;-61
2021/11/18 00:25:53;;;;;;;252.10;114.47;;;;;;;-1.32;77.88;95021.17;1669732;84;21071;-61
2021/11/18 00:28:20;;;;;;;263.92;113.03;;;;;;;-1.41;77.72;95017.98;1664771;84;21543;-62
2021/11/18 00:30:47;;;;;;;256.17;114.12;;;;;;;-1.51;77.94;95023.23;1663206;84;20979;-61
2021/11/18 00:33:14;;;;;;;264.45;118.53;;;;;;;-1.55;78.34;95022.38;1646834;85;20986;-60
2021/11/18 00:35:41;;;;;;;284.20;124.12;;;;;;;-1.56;78.59;95023.52;1661055;85;21175;-61
2021/11/18 00:38:07;;;;;;;292.32;122.78;;;;;;;-1.54;78.55;95028.01;1643784;85;20972;-60
2021/11/18 00:40:37;;;;;;;288.07;125.27;;;;;;;-1.60;78.47;95032.93;1673555;85;20950;-61
2021/11/18 00:43:06;;;;;;;278.70;124.18;;;;;;;-1.62;78.64;95033.08;1669437;84;21204;-61
2021/11/18 00:45:33;;;;;;;268.20;120.05;;;;;;;-1.58;78.81;95027.16;1672168;84;21232;-61
2021/11/18 00:48:01;;;;;;;260.20;116.22;;;;;;;-1.50;78.80;95031.53;1674520;84;21219;-61
2021/11/18 00:50:35;;;;;;;253.70;114.75;;;;;;;-1.43;78.48;95032.97;1666987;84;21085;-59
2021/11/18 00:53:02;;;;;;;268.02;119.47;;;;;;;-1.49;78.30;95035.19;1667534;84;20987;-60
2021/11/18 00:55:30;;;;;;;282.90;119.67;;;;;;;-1.59;78.21;95030.99;1663785;84;21017;-60
2021/11/18 00:57:56;;;;;;;255.37;120.57;;;;;;;-1.75;78.20;95029.02;1657670;84;21038;-61
2021/11/18 01:00:31;;;;;;;198.57;92.22;;;;;;;-1.81;78.55;95020.27;1675020;84;21168;-60
2021/11/18 01:02:59;;;;;;;205.52;96.70;;;;;;;-1.83;78.79;95030.61;1660267;84;21019;-60
2021/11/18 01:05:28;;;;;;;203.98;98.85;;;;;;;-1.90;78.57;95023.77;1652406;85;21018;-60
2021/11/18 01:07:57;;;;;;;201.37;97.42;;;;;;;-1.99;78.67;95019.22;1675856;84;21463;-61
2021/11/18 01:10:25;;;;;;;198.20;93.67;;;;;;;-2.05;78.80;95009.30;1666597;84;21146;-61
2021/11/18 01:12:53;;;;;;;200.95;95.57;;;;;;;-2.11;79.13;95020.74;1671982;84;21116;-61
2021/11/18 01:15:24;;;;;;;200.38;100.10;;;;;;;-2.13;79.26;95015.70;1664941;84;21131;-62
2021/11/18 01:17:51;;;;;;;212.57;97.88;;;;;;;-2.13;79.37;95013.00;1645193;86;21055;-59
2021/11/18 01:20:20;;;;;;;190.80;96.42;;;;;;;-2.08;79.76;95015.42;1661336;84;21030;-61
2021/11/18 01:22:47;;;;;;;212.78;98.40;;;;;;;-2.03;79.48;95016.45;1664790;84;20999;-61
2021/11/18 01:25:14;;;;;;;203.47;97.50;;;;;;;-2.12;79.15;95018.60;1670930;84;21043;-61
2021/11/18 01:27:43;;;;;;;210.85;102.60;;;;;;;-2.22;79.24;95017.88;1656704;84;20974;-60
2021/11/18 01:30:22;;;;;;;226.90;106.32;;;;;;;-2.27;79.48;95022.22;1674399;84;21154;-60
2021/11/18 01:32:49;;;;;;;218.65;100.92;;;;;;;-2.24;79.51;95014.77;1675193;84;20999;-60
2021/11/18 01:35:18;;;;;;;227.57;105.63;;;;;;;-2.24;79.53;95016.11;1666377;84;21003;-61
2021/11/18 01:37:44;;;;;;;201.35;97.05;;;;;;;-2.17;79.64;95008.13;1676379;84;21147;-61
2021/11/18 01:40:15;;;;;;;215.28;104.55;;;;;;;-2.13;79.44;95007.62;1671131;84;21062;-62
2021/11/18 01:42:42;;;;;;;192.13;89.35;;;;;;;-2.09;79.32;95024.64;1659349;84;21180;-61
2021/11/18 01:45:12;;;;;;;176.05;90.50;;;;;;;-2.13;79.12;95021.09;1672952;84;21105;-60
2021/11/18 01:47:40;;;;;;;174.87;86.75;;;;;;;-2.12;79.47;95019.19;1670304;84;21109;-60
2021/11/18 01:50:11;;;;;;;165.18;83.85;;;;;;;-2.14;79.26;95028.20;1665501;84;21102;-60
2021/11/18 01:52:39;;;;;;;173.97;81.02;;;;;;;-2.17;79.12;95031.04;1654010;84;21064;-60
2021/11/18 01:55:07;;;;;;;202.75;95.28;;;;;;;-2.25;78.94;95029.38;1656540;84;20978;-61
2021/11/18 01:57:36;;;;;;;190.95;97.05;;;;;;;-2.36;78.85;95021.66;1663407;84;20967;-60
2021/11/18 02:00:16;;;;;;;186.52;95.47;;;;;;;-2.39;78.83;95027.77;1658042;85;21054;-60
2021/11/18 02:02:42;;;;;;;195.65;97.02;;;;;;;-2.42;79.05;95036.58;1668161;84;21186;-60
2021/11/18 02:05:22;;;;;;;182.37;91.40;;;;;;;-2.38;79.13;95029.33;1661466;85;21011;-61
2021/11/18 02:07:55;;;;;;;155.00;76.47;;;;;;;-2.39;78.98;95039.89;1667233;84;21466;-60
2021/11/18 02:10:36;;;;;;;184.03;90.03;;;;;;;-2.41;78.82;95034.64;1669374;84;20986;-60
2021/11/18 02:13:04;;;;;;;184.35;92.72;;;;;;;-2.50;78.83;95040.84;1668262;84;21128;-61
2021/11/18 02:15:39;;;;;;;187.12;94.47;;;;;;;-2.54;78.99;95031.34;1668529;84;21527;-61
2021/11/18 02:18:23;;;;;;;198.40;92.17;;;;;;;-2.47;79.12;95035.50;1637469;84;21001;-62
2021/11/18 02:20:54;;;;;;;180.00;90.67;;;;;;;-2.40;79.10;95024.08;1667896;84;21019;-60
2021/11/18 02:23:24;;;;;;;192.80;94.07;;;;;;;-2.35;78.83;95021.88;1663658;85;21541;-61
2021/11/18 02:25:53;;;;;;;217.13;99.90;;;;;;;-2.32;78.71;95020.39;1665786;84;21097;-62
2021/11/18 02:28:21;;;;;;;230.70;106.60;;;;;;;-2.35;78.42;95017.84;1670450;84;21156;-62
2021/11/18 02:30:49;;;;;;;233.53;105.95;;;;;;;-2.39;78.44;95018.34;1665834;84;21028;-61
2021/11/18 02:33:17;;;;;;;228.52;107.52;;;;;;;-2.36;78.45;95011.48;1668914;84;20987;-61
2021/11/18 02:35:47;;;;;;;210.45;98.33;;;;;;;-2.33;78.30;95023.64;1648846;84;21067;-62
2021/11/18 02:38:15;;;;;;;208.05;101.53;;;;;;;-2.33;78.30;95015.55;1663656;84;20962;-61
2021/11/18 02:40:42;;;;;;;210.40;101.67;;;;;;;-2.32;78.04;95014.41;1670944;84;21866;-61
2021/11/18 02:43:17;;;;;;;224.60;104.03;;;;;;;-2.37;77.92;95020.11;1664217;84;21146;-60
2021/11/18 02:45:40;;;;;;;208.40;104.90;;;;;;;-2.40;77.90;95026.22;1636215;86;21074;-58
2021/11/18 02:48:07;;;;;;;198.53;96.90;;;;;;;-2.42;77.86;95025.02;1671642;84;21541;-61
2021/11/18 02:50:36;;;;;;;194.07;91.78;;;;;;;-2.45;78.00;95023.03;1668429;84;21014;-57
2021/11/18 02:53:03;;;;;;;236.37;111.30;;;;;;;-2.43;77.83;95026.94;1669087;84;21420;-57
2021/11/18 02:55:38;;;;;;;230.83;106.72;;;;;;;-2.43;77.74;95021.55;1671425;85;21028;-59
2021/11/18 02:58:05;;;;;;;226.73;106.22;;;;;;;-2.36;77.53;95021.66;1662919;85;21074;-60
2021/11/18 03:00:38;;;;;;;240.80;113.45;;;;;;;-2.37;77.19;95023.36;1664585;84;21233;-61
2021/11/18 03:03:06;;;;;;;235.95;107.20;;;;;;;-2.35;77.17;95020.53;1663693;84;20959;-61
2021/11/18 03:05:35;;;;;;;262.80;116.95;;;;;;;-2.27;76.98;95019.53;1665851;85;21784;-60
2021/11/18 03:08:02;;;;;;;254.65;113.42;;;;;;;-2.19;76.70;95025.23;1668628;84;21453;-62
2021/11/18 03:10:30;;;;;;;261.50;116.75;;;;;;;-2.11;76.64;95018.81;1674626;84;21043;-61
2021/11/18 03:12:57;;;;;;;256.65;115.20;;;;;;;-1.99;76.35;95026.72;1674761;84;20979;-60
2021/11/18 03:15:26;;;;;;;258.07;113.88;;;;;;;-1.94;75.96;95026.41;1665339;84;21133;-60
2021/11/18 03:17:55;;;;;;;230.43;108.70;;;;;;;-1.85;76.01;95025.59;1666949;84;21137;-59
2021/11/18 03:20:25;;;;;;;212.90;100.35;;;;;;;-1.79;75.81;95021.45;1677820;84;21030;-59
2021/11/18 03:22:52;;;;;;;224.98;107.80;;;;;;;-1.64;75.59;95023.22;1650908;84;21020;-61
2021/11/18 03:25:28;;;;;;;235.40;106.10;;;;;;;-1.56;75.12;95021.62;1672845;84;21446;-61
2021/11/18 03:27:56;;;;;;;236.50;108.60;;;;;;;-1.45;74.88;95014.47;1663674;84;21239;-61
2021/11/18 03:30:27;;;;;;;225.57;108.30;;;;;;;-1.28;74.23;95017.18;1663924;84;21129;-60
2021/11/18 03:32:57;;;;;;;203.00;94.35;;;;;;;-1.17;73.66;95012.72;1665033;84;21535;-60
2021/11/18 03:35:24;;;;;;;216.78;101.22;;;;;;;-1.05;73.16;95008.41;1668319;84;20983;-60
2021/11/18 03:37:52;;;;;;;200.53;96.95;;;;;;;-1.09;72.89;95010.30;1639084;86;21036;-61
2021/11/18 03:40:21;;;;;;;198.17;98.58;;;;;;;-1.05;72.90;95006.50;1650199;84;21034;-62
2021/11/18 03:42:48;;;;;;;214.80;98.87;;;;;;;-1.09;72.44;95017.05;1672111;84;21144;-64
2021/11/18 03:45:17;;;;;;;224.77;110.80;;;;;;;-1.06;72.39;95021.70;1664959;84;21112;-61
2021/11/18 03:47:44;;;;;;;244.35;123.92;;;;;;;-1.09;72.07;95019.75;1660280;84;21549;-61
2021/11/18 03:50:12;;;;;;;242.93;125.33;;;;;;;-1.11;71.95;95020.69;1671368;84;21020;-59
2021/11/18 03:52:41;;;;;;;276.18;134.67;;;;;;;-1.13;71.88;95019.69;1657078;85;21439;-59
2021/11/18 03:55:10;;;;;;;249.42;120.15;;;;;;;-1.10;72.17;95016.25;1673427;84;21106;-63
2021/11/18 03:57:37;;;;;;;205.10;108.12;;;;;;;-1.05;71.92;95011.91;1668215;84;21420;-61
2021/11/18 04:00:11;;;;;;;201.30;102.12;;;;;;;-1.05;71.78;95005.72;1674038;85;21027;-61
2021/11/18 04:02:39;;;;;;;207.07;103.97;;;;;;;-0.97;72.06;95005.44;1662910;85;21640;-61
2021/11/18 04:05:07;;;;;;;203.90;99.07;;;;;;;-0.87;71.81;95008.05;1638345;86;21066;-61
2021/11/18 04:07:39;;;;;;;203.90;102.30;;;;;;;-0.79;71.53;95014.52;1659514;85;21167;-61
2021/11/18 04:10:10;;;;;;;228.22;108.75;;;;;;;-0.68;71.53;95015.98;1663200;84;21439;-61
2021/11/18 04:12:39;;;;;;;199.17;102.10;;;;;;;-0.65;71.09;95017.95;1649653;85;21023;-62
2021/11/18 04:15:08;;;;;;;208.72;110.22;;;;;;;-0.74;70.88;95020.17;1659434;84;21062;-61
2021/11/18 04:17:35;;;;;;;186.03;89.65;;;;;;;-0.91;70.74;95017.48;1671972;84;21137;-60
2021/11/18 04:20:03;;;;;;;216.95;105.87;;;;;;;-1.03;70.46;95034.47;1670797;84;21173;-61
2021/11/18 04:22:32;;;;;;;299.37;153.35;;;;;;;-1.17;71.14;95027.56;1667554;84;20965;-61
2021/11/18 04:24:58;;;;;;;289.55;138.77;;;;;;;-1.10;71.40;95026.29;1665214;84;21511;-61
2021/11/18 04:27:26;;;;;;;281.02;137.07;;;;;;;-0.96;71.16;95023.77;1668684;84;20955;-60
2021/11/18 04:29:53;;;;;;;261.40;126.12;;;;;;;-0.92;70.81;95023.23;1678601;84;20988;-61
2021/11/18 04:32:25;;;;;;;259.48;127.80;;;;;;;-0.89;70.77;95029.25;1667653;84;21178;-62
2021/11/18 04:34:53;;;;;;;226.90;108.43;;;;;;;-0.79;70.61;95037.47;1650114;85;21175;-59
2021/11/18 04:37:21;;;;;;;238.32;117.47;;;;;;;-0.70;70.49;95039.89;1662905;85;21063;-60
2021/11/18 04:39:48;;;;;;;240.47;118.53;;;;;;;-0.83;69.92;95037.22;1650775;85;21561;-60
2021/11/18 04:42:17;;;;;;;234.07;116.82;;;;;;;-1.03;70.14;95047.96;1667156;85;21578;-62
2021/11/18 04:44:49;;;;;;;254.07;121.05;;;;;;;-1.16;70.31;95043.95;1629077;85;21198;-62
2021/11/18 04:47:15;;;;;;;239.88;121.53;;;;;;;-1.28;70.79;95054.41;1658676;85;20968;-61
2021/11/18 04:49:44;;;;;;;259.85;124.78;;;;;;;-1.27;71.14;95064.05;1663476;84;21019;-60
2021/11/18 04:52:13;;;;;;;260.13;126.75;;;;;;;-1.25;71.12;95056.92;1663005;84;21635;-61
2021/11/18 04:54:40;;;;;;;251.25;121.20;;;;;;;-1.25;71.30;95065.02;1673781;84;21058;-62
2021/11/18 04:57:08;;;;;;;207.45;108.25;;;;;;;-1.14;71.52;95055.16;1658155;84;21931;-60
2021/11/18 04:59:36;;;;;;;216.85;106.87;;;;;;;-1.01;71.57;95056.47;1679505;85;22103;-61
2021/11/18 05:02:04;;;;;;;223.80;107.05;;;;;;;-0.90;71.61;95058.74;1667811;85;20990;-61
2021/11/18 05:04:31;;;;;;;220.17;112.60;;;;;;;-0.85;71.17;95057.06;1660658;84;21054;-62
2021/11/18 05:06:57;;;;;;;193.82;105.75;;;;;;;-0.83;71.57;95060.17;1635161;85;21049;-62
2021/11/18 05:09:24;;;;;;;225.28;115.80;;;;;;;-0.67;71.77;95063.46;1654855;85;21476;-61
2021/11/18 05:11:52;;;;;;;242.50;122.53;;;;;;;-0.52;71.80;95068.67;1655649;85;21014;-61
2021/11/18 05:14:21;;;;;;;254.63;119.45;;;;;;;-0.43;71.01;95071.09;1661943;85;21127;-61
2021/11/18 05:16:50;;;;;;;266.85;125.12;;;;;;;-0.47;70.33;95069.69;1665897;85;21129;-60
2021/11/18 05:19:17;;;;;;;244.82;122.53;;;;;;;-0.56;70.30;95069.77;1666904;84;21034;-62
2021/11/18 05:21:44;;;;;;;266.10;130.47;;;;;;;-0.63;69.91;95066.41;1642829;85;21140;-60
2021/11/18 05:24:12;;;;;;;244.28;121.90;;;;;;;-0.80;69.62;95075.08;1670202;84;20963;-61
2021/11/18 05:26:39;;;;;;;233.23;108.25;;;;;;;-0.95;69.97;95083.38;1640114;86;20986;-59
2021/11/18 05:29:05;;;;;;;229.72;107.35;;;;;;;-1.01;70.54;95076.16;1613045;87;21048;-61
2021/11/18 05:31:34;;;;;;;223.93;99.97;;;;;;;-1.07;70.62;95084.94;1662324;84;20958;-62
2021/11/18 05:34:06;;;;;;;220.97;101.95;;;;;;;-1.18;71.13;95082.09;1663440;84;21844;-62
2021/11/18 05:36:35;;;;;;;223.35;106.30;;;;;;;-1.21;71.67;95079.33;1675699;84;21085;-62
2021/11/18 05:39:03;;;;;;;235.05;108.05;;;;;;;-1.21;71.93;95082.03;1674926;84;21019;-63
2021/11/18 05:41:31;;;;;;;229.60;116.57;;;;;;;-1.18;72.39;95079.98;1660058;85;21003;-64
2021/11/18 05:44:03;;;;;;;223.82;115.28;;;;;;;-1.11;72.63;95087.58;1670181;85;20976;-63
2021/11/18 05:46:32;;;;;;;184.55;99.10;;;;;;;-1.08;72.88;95078.77;1671666;84;21935;-63
2021/11/18 05:49:01;;;;;;;268.55;133.93;;;;;;;-0.96;73.29;95076.42;1650148;85;21131;-67
2021/11/18 05:51:27;;;;;;;225.40;111.68;;;;;;;-0.80;73.23;95087.23;1622719;86;21130;-69
2021/11/18 05:53:54;;;;;;;223.13;113.45;;;;;;;-0.73;72.71;95091.39;1641091;86;21653;-67
2021/11/18 05:56:23;;;;;;;175.45;93.72;;;;;;;-0.76;72.80;95098.09;1622082;87;21006;-68
2021/11/18 05:58:54;;;;;;;147.62;79.50;;;;;;;-0.75;72.86;95095.59;1622444;86;21516;-69
2021/11/18 06:01:28;;;;;;;188.07;97.55;;;;;;;-0.82;72.96;95095.48;1671911;84;21003;-71
2021/11/18 06:03:54;;;;;;;205.07;110.53;;;;;;;-0.88;73.17;95099.09;1662462;84;21050;-71
2021/11/18 06:06:23;;;;;;;228.35;121.95;;;;;;;-0.80;74.03;95094.56;1666964;84;21204;-71
2021/11/18 06:08:49;;;;;;;227.80;116.57;;;;;;;-0.58;73.76;95094.44;1654328;85;21066;-71
2021/11/18 06:11:16;;;;;;;251.02;129.23;;;;;;;-0.48;73.57;95102.47;1674357;84;21495;-69
2021/11/18 06:13:48;;;;;;;210.45;113.10;;;;;;;-0.37;73.43;95102.03;1690693;83;21082;-72
2021/11/18 06:16:12;;;;;;;239.00;126.85;;;;;;;-0.17;74.00;95102.06;1698129;82;21098;-70
2021/11/18 06:18:41;;;;;;;197.35;110.60;;;;;;;0.11;73.89;95107.18;1684472;83;20951;-65
2021/11/18 06:21:07;;;;;;;205.05;109.00;;;;;;;0.36;73.05;95108.17;1678144;83;21569;-70
2021/11/18 06:23:34;;;;;;;194.13;102.80;;;;;;;0.39;72.12;95113.63;1693708;83;22212;-71
2021/11/18 06:26:00;;;;;;;206.53;111.32;;;;;;;0.31;71.74;95117.44;1693542;83;21587;-67
2021/11/18 06:28:27;;;;;;;257.87;129.85;;;;;;;0.20;71.79;95115.19;1689054;83;20970;-72
2021/11/18 06:30:57;;;;;;;209.47;115.10;;;;;;;0.18;72.08;95116.70;1692136;83;21040;-64
2021/11/18 06:33:27;;;;;;;175.87;96.80;;;;;;;0.15;71.91;95124.21;1687494;83;21030;-73
2021/11/18 06:35:54;;;;;;;162.12;93.35;;;;;;;0.06;72.04;95121.80;1673538;83;21225;-70
2021/11/18 06:38:20;;;;;;;194.37;106.37;;;;;;;0.04;72.39;95125.45;1672834;83;21062;-71
2021/11/18 06:40:47;;;;;;;205.45;109.63;;;;;;;0.09;72.79;95122.44;1696495;83;21122;-68
2021/11/18 06:43:15;;;;;;;201.70;112.72;;;;;;;0.20;72.98;95123.30;1681641;83;21085;-66
2021/11/18 06:45:45;;;;;;;192.20;105.30;;;;;;;0.27;72.67;95123.95;1666495;83;21225;-70
2021/11/18 06:48:15;;;;;;;189.62;100.92;;;;;;;0.29;72.85;95123.80;1678993;83;21152;-63
2021/11/18 06:50:43;;;;;;;177.65;98.80;;;;;;;0.40;72.90;95120.59;1691523;82;21173;-65
2021/11/18 06:53:11;;;;;;;185.90;105.67;;;;;;;0.45;72.88;95118.89;1684391;83;21047;-64
2021/11/18 06:55:38;;;;;;;193.95;108.03;;;;;;;0.56;72.96;95114.35;1694204;82;21015;-64
2021/11/18 06:58:06;;;;;;;194.05;105.17;;;;;;;0.70;72.50;95113.68;1687537;83;21548;-68
2021/11/18 07:00:32;;;;;;;193.97;105.27;;;;;;;0.73;72.38;95116.98;1692497;83;21483;-62
2021/11/18 07:02:59;;;;;;;188.82;93.92;;;;;;;0.77;72.24;95118.58;1700667;83;21086;-63
2021/11/18 07:05:26;;;;;;;167.65;92.55;;;;;;;0.84;72.20;95114.58;1660434;83;21696;-62
2021/11/18 07:07:55;;;;;;;195.10;104.83;;;;;;;0.89;72.08;95110.16;1678118;83;21010;-64
2021/11/18 07:10:22;;;;;;;219.30;114.67;;;;;;;0.92;72.47;95113.47;1686511;83;21003;-62
2021/11/18 07:12:52;;;;;;;215.57;109.03;;;;;;;1.06;72.49;95115.48;1679111;83;21189;-65
2021/11/18 07:15:20;;;;;;;215.00;111.05;;;;;;;1.16;72.42;95112.84;1682486;83;21923;-66
2021/11/18 07:17:49;;;;;;;206.60;115.72;;;;;;;1.27;72.00;95119.67;1681275;82;21231;-67
2021/11/18 07:20:15;;;;;;;194.95;108.85;;;;;;;1.34;71.76;95120.48;1677397;83;21072;-64
2021/11/18 07:22:42;;;;;;;191.53;101.05;;;;;;;1.31;71.59;95120.48;1681437;83;21251;-62
2021/11/18 07:25:14;;;;;;;183.90;100.65;;;;;;;1.24;71.54;95126.64;1686885;83;21156;-63
2021/11/18 07:27:42;;;;;;;196.90;110.37;;;;;;;1.09;71.65;95127.70;1661028;83;21612;-65
2021/11/18 07:30:10;;;;;;;172.35;98.07;;;;;;;1.03;71.95;95131.93;1685211;82;21804;-66
2021/11/18 07:32:38;;;;;;;160.50;90.10;;;;;;;1.01;71.96;95132.89;1693053;83;21027;-66
2021/11/18 07:35:07;;;;;;;184.40;103.07;;;;;;;1.01;72.42;95123.41;1686964;83;21502;-71
2021/11/18 07:37:34;;;;;;;168.55;92.92;;;;;;;1.07;72.21;95127.88;1690052;82;21161;-72
2021/11/18 07:40:08;;;;;;;197.57;107.90;;;;;;;1.03;72.23;95127.08;1692271;82;21069;-68
2021/11/18 07:42:36;;;;;;;164.70;97.57;;;;;;;1.02;72.65;95140.42;1695861;82;21110;-62
2021/11/18 07:45:23;;;;;;;209.87;109.10;;;;;;;1.15;72.79;95137.61;1690829;82;21026;-65
2021/11/18 07:48:03;;;;;;;175.62;99.72;;;;;;;1.27;72.90;95134.00;1674907;83;21072;-66
2021/11/18 07:50:31;;;;;;;181.22;94.20;;;;;;;1.45;72.72;95132.73;1689187;82;21055;-69
2021/11/18 07:52:59;;;;;;;231.02;115.37;;;;;;;1.55;72.47;95132.81;1673575;81;21049;-75
2021/11/18 07:55:25;;;;;;;212.55;112.20;;;;;;;1.59;72.38;95128.18;1682382;83;21094;-71
2021/11/18 07:57:52;;;;;;;211.15;110.57;;;;;;;1.64;72.16;95133.80;1695712;83;21059;-67
2021/11/18 08:00:21;;;;;;;215.10;114.28;;;;;;;1.65;72.29;95133.42;1708260;82;21381;-67
2021/11/18 08:02:49;;;;;;;218.17;119.87;;;;;;;1.75;72.52;95132.70;1678755;83;21139;-60
2021/11/18 08:05:20;;;;;;;338.43;155.90;;;;;;;1.83;72.13;95128.85;1698077;82;21297;-69
2021/11/18 08:07:47;;;;;;;279.85;135.72;;;;;;;1.85;71.87;95131.39;1684377;83;21142;-65
2021/11/18 08:10:15;;;;;;;235.60;121.02;;;;;;;1.83;71.91;95134.28;1695686;82;21139;-68
2021/11/18 08:12:43;;;;;;;207.57;112.10;;;;;;;1.87;72.10;95137.77;1694042;83;21070;-60
2021/11/18 08:15:13;;;;;;;234.37;120.67;;;;;;;1.92;71.83;95138.78;1687002;83;21121;-60
2021/11/18 08:17:40;;;;;;;229.47;120.75;;;;;;;1.90;72.08;95136.44;1698131;82;21111;-66
2021/11/18 08:20:09;;;;;;;233.07;126.75;;;;;;;1.91;72.02;95139.91;1652371;82;21075;-60
2021/11/18 08:22:36;;;;;;;234.67;126.45;;;;;;;1.94;71.86;95132.39;1686854;83;21037;-70
2021/11/18 08:25:04;;;;;;;230.22;122.53;;;;;;;2.00;72.07;95141.70;1686940;82;21051;-69
2021/11/18 08:27:34;;;;;;;246.22;135.15;;;;;;;2.09;71.94;95140.19;1690317;83;21199;-63
2021/11/18 08:30:03;;;;;;;251.90;135.60;;;;;;;2.25;72.21;95136.55;1692759;82;21896;-72
2021/11/18 08:32:32;;;;;;;247.33;129.03;;;;;;;2.47;72.04;95134.66;1698880;82;21625;-67
2021/11/18 08:35:00;;;;;;;227.15;130.15;;;;;;;2.64;71.34;95129.80;1676231;83;21130;-73
2021/11/18 08:37:27;;;;;;;225.93;126.18;;;;;;;2.72;71.19;95129.41;1697368;83;21045;-71
2021/11/18 08:39:54;;;;;;;222.22;125.02;;;;;;;2.75;70.82;95128.66;1682829;83;21168;-66
2021/11/18 08:42:23;;;;;;;244.85;134.07;;;;;;;2.76;70.85;95132.14;1687242;82;21121;-70
2021/11/18 08:44:52;;;;;;;249.47;135.88;;;;;;;2.69;70.61;95131.55;1691005;83;21110;-74
2021/11/18 08:47:22;;;;;;;207.07;113.65;;;;;;;2.56;70.89;95134.47;1691171;83;21085;-65
2021/11/18 08:49:49;;;;;;;191.73;112.30;;;;;;;2.57;70.95;95140.66;1695328;82;22680;-77
2021/11/18 08:52:21;;;;;;;184.13;106.58;;;;;;;2.49;71.26;95137.75;1678781;83;21143;-64
2021/11/18 08:54:53;;;;;;;188.40;108.20;;;;;;;2.53;71.41;95129.03;1684848;83;21052;-64
2021/11/18 08:57:21;;;;;;;224.90;124.95;;;;;;;2.58;71.38;95136.22;1694498;83;21060;-72
2021/11/18 08:59:52;;;;;;;201.65;113.15;;;;;;;2.61;71.29;95130.57;1650588;83;21118;-66
2021/11/18 09:02:24;;;;;;;185.00;112.28;;;;;;;2.75;71.37;95125.16;1694051;82;21079;-71
2021/11/18 09:04:53;;;;;;;185.30;105.92;;;;;;;2.88;71.09;95118.17;1690865;83;21833;-66
2021/11/18 09:07:21;;;;;;;177.00;102.20;;;;;;;3.02;70.85;95120.89;1673595;83;21064;-69
2021/11/18 09:09:48;;;;;;;187.32;109.40;;;;;;;3.16;70.61;95127.65;1693726;83;21098;-66
2021/11/18 09:12:15;;;;;;;180.78;101.42;;;;;;;3.20;70.17;95124.37;1701422;82;21098;-63
2021/11/18 09:14:42;;;;;;;160.60;95.77;;;;;;;3.21;70.04;95120.48;1680940;83;21113;-66
2021/11/18 09:17:11;;;;;;;140.18;84.70;;;;;;;3.22;69.94;95125.51;1702467;81;21136;-65
2021/11/18 09:19:41;;;;;;;113.00;68.00;;;;;;;3.19;69.85;95125.50;1694529;82;21075;-66
2021/11/18 09:22:10;;;;;;;132.03;70.97;;;;;;;3.12;69.66;95121.45;1704949;82;20999;-75
2021/11/18 09:24:47;;;;;;;135.68;78.12;;;;;;;3.08;69.80;95123.40;1689210;82;21120;-71
2021/11/18 09:27:19;;;;;;;143.85;88.75;;;;;;;3.14;70.08;95117.75;1690199;83;21011;-72
2021/11/18 09:29:46;;;;;;;137.22;81.28;;;;;;;3.30;70.18;95115.40;1675079;83;21155;-73
2021/11/18 09:32:15;;;;;;;146.53;86.32;;;;;;;3.53;70.00;95112.44;1670164;82;21676;-65
2021/11/18 09:34:44;;;;;;;116.30;71.67;;;;;;;3.67;69.85;95113.76;1635217;85;21137;-66
2021/11/18 09:37:11;;;;;;;119.10;73.90;;;;;;;3.77;69.51;95106.91;1633806;85;21368;-70
2021/11/18 09:39:38;;;;;;;117.28;71.87;;;;;;;3.80;69.37;95093.09;1632878;85;21054;-76
2021/11/18 09:42:15;;;;;;;130.03;77.72;;;;;;;3.87;69.27;95090.35;1648596;84;21221;-74
2021/11/18 09:45:21;;;;;;;138.85;81.45;;;;;;;3.96;69.44;95083.88;1692698;81;21070;-66
2021/11/18 09:48:34;;;;;;;134.18;81.35;;;;;;;4.13;69.13;95086.52;1675625;82;21023;-71
2021/11/18 09:51:33;;;;;;;116.33;69.87;;;;;;;4.27;69.23;95094.59;1702490;82;21058;-75
2021/11/18 09:54:31;;;;;;;121.00;76.90;;;;;;;4.40;68.52;95086.75;1669283;83;21032;-66
2021/11/18 09:57:47;;;;;;;121.97;72.85;;;;;;;4.34;68.07;95083.67;1626798;86;21943;-72
2021/11/18 10:00:45;;;;;;;134.57;76.95;;;;;;;4.28;68.07;95079.04;1630231;85;21470;-78
2021/11/18 10:03:52;;;;;;;140.25;78.28;;;;;;;4.20;68.14;95086.47;1630087;85;21562;-80
2021/11/18 10:06:27;;;;;;;120.15;75.40;;;;;;;4.16;68.63;95087.09;1688937;82;20971;-72
2021/11/18 10:09:16;;;;;;;146.35;85.30;;;;;;;4.19;68.48;95083.56;1685290;83;21840;-69
2021/11/18 10:12:18;;;;;;;159.18;91.90;;;;;;;4.16;68.40;95076.20;1698177;82;21630;-68
2021/11/18 10:14:56;;;;;;;133.25;82.37;;;;;;;4.16;68.99;95077.56;1687092;83;21110;-73
2021/11/18 10:17:32;;;;;;;153.05;90.15;;;;;;;4.28;68.86;95070.88;1676336;82;21044;-75
2021/11/18 10:20:11;;;;;;;151.42;88.03;;;;;;;4.38;69.21;95065.95;1682272;83;21065;-75
2021/11/18 10:22:43;;;;;;;155.78;96.55;;;;;;;4.46;69.37;95066.84;1700181;82;21062;-73
2021/11/18 10:25:14;;;;;;;214.72;119.40;;;;;;;4.45;69.20;95066.66;1690234;82;21234;-78
2021/11/18 10:27:53;;;;;;;245.65;132.95;;;;;;;4.40;69.42;95062.24;1690396;83;21054;-74
2021/11/18 10:30:43;;;;;;;211.87;122.80;;;;;;;4.41;69.53;95059.10;1642355;84;21065;-76
2021/11/18 10:33:18;;;;;;;243.82;140.88;;;;;;;4.47;69.79;95047.98;1649807;84;22223;-76
2021/11/18 10:36:08;;;;;;;230.40;133.95;;;;;;;4.52;69.58;95051.64;1655499;84;21139;-69
2021/11/18 10:38:40;;;;;;;242.62;139.55;;;;;;;4.55;69.37;95047.31;1644529;84;21606;-69
2021/11/18 10:41:22;;;;;;;214.38;124.92;;;;;;;4.51;69.50;95048.73;1657464;84;21025;-77
2021/11/18 10:44:12;;;;;;;179.18;101.90;;;;;;;4.54;69.56;95049.86;1663357;84;21051;-69
2021/11/18 10:46:44;;;;;;;164.65;93.52;;;;;;;4.53;69.31;95040.92;1679001;82;20975;-73
2021/11/18 10:49:15;;;;;;;155.52;96.22;;;;;;;4.51;69.57;95041.92;1652536;83;21042;-78
2021/11/18 10:51:56;;;;;;;154.03;89.67;;;;;;;4.64;69.53;95041.59;1673795;83;22226;-73
2021/11/18 10:54:43;;;;;;;142.85;86.80;;;;;;;4.80;69.38;95039.13;1681688;83;21168;-78
2021/11/18 10:57:18;;;;;;;159.57;88.85;;;;;;;4.94;68.81;95048.55;1677500;83;22240;-65
2021/11/18 10:59:50;;;;;;;155.75;90.35;;;;;;;5.07;68.88;95029.16;1688901;83;21083;-74
2021/11/18 11:02:32;;;;;;;160.65;93.70;;;;;;;5.26;68.59;95026.59;1684897;82;21116;-69
2021/11/18 11:05:03;;;;;;;147.55;87.90;;;;;;;5.41;68.23;95031.33;1681315;83;21164;-66
2021/11/18 11:07:42;;;;;;;127.25;73.57;;;;;;;5.56;68.00;95038.14;1690917;83;21020;-74
2021/11/18 11:10:13;;;;;;;115.92;66.85;;;;;;;5.69;67.73;95035.06;1675867;83;21496;-72
2021/11/18 11:13:13;;;;;;;115.55;65.47;;;;;;;5.74;66.89;95023.69;1669581;83;21703;-77
2021/11/18 11:16:16;;;;;;;99.10;57.43;;;;;;;5.72;66.86;95019.23;1683482;83;21102;-75
2021/11/18 11:19:11;;;;;;;98.25;56.02;;;;;;;5.74;66.83;95019.59;1685058;83;21054;-66
2021/11/18 11:22:05;;;;;;;101.30;54.55;;;;;;;5.68;66.82;95022.61;1689402;83;21532;-73
2021/11/18 11:24:52;;;;;;;90.80;51.02;;;;;;;5.60;67.15;95013.73;1692951;83;21031;-77